createdAt,value
2023-02-27T09:31:21.198Z,47.92
2023-02-27T09:33:47.761Z,49.63
2023-02-27T09:36:22.220Z,48.52
2023-02-27T09:38:55.155Z,50.06
2023-02-27T09:41:52.157Z,49.94
2023-02-27T09:44:46.197Z,50.32
2023-02-27T09:47:18.919Z,49.51
2023-02-27T09:50:08.167Z,49.40
2023-02-27T09:52:37.393Z,47.99
2023-02-27T09:55:27.151Z,46.98
2023-02-27T09:58:04.442Z,46.32
2023-02-27T10:01:12.155Z,44.84
2023-02-27T10:04:29.175Z,43.76
2023-02-27T10:07:04.512Z,42.19
2023-02-27T10:10:11.401Z,41.89
2023-02-27T10:12:52.624Z,38.94
2023-02-27T10:15:41.225Z,39.35
2023-02-27T10:18:30.684Z,40.60
2023-02-27T10:21:11.134Z,39.34
2023-02-27T10:23:43.694Z,36.30
2023-02-27T10:26:30.160Z,37.06
2023-02-27T10:28:58.999Z,36.36
2023-02-27T10:31:30.003Z,37.58
2023-02-27T10:34:04.143Z,39.13
2023-02-27T10:36:34.418Z,40.10
2023-02-27T10:39:15.152Z,38.38
2023-02-27T10:41:44.185Z,40.15
2023-02-27T10:44:22.168Z,39.04
2023-02-27T10:46:51.682Z,39.11
2023-02-27T10:49:21.839Z,38.54
2023-02-27T10:52:17.136Z,38.70
2023-02-27T10:54:51.139Z,39.82
2023-02-27T10:57:36.929Z,40.50
2023-02-27T11:00:15.119Z,39.41
2023-02-27T11:02:50.147Z,42.86
2023-02-27T11:05:35.535Z,40.87
2023-02-27T11:08:39.143Z,42.44
2023-02-27T11:11:09.415Z,41.59
2023-02-27T11:13:43.120Z,40.43
2023-02-27T11:16:23.688Z,40.73
2023-02-27T11:19:01.128Z,40.47
2023-02-27T11:21:30.548Z,41.37
2023-02-27T11:24:08.169Z,40.62
2023-02-27T11:26:38.064Z,41.35
2023-02-27T11:29:24.124Z,41.63
2023-02-27T11:32:20.175Z,41.63
2023-02-27T11:34:58.132Z,42.78
2023-02-27T11:37:41.123Z,41.38
2023-02-27T11:40:19.139Z,41.94
2023-02-27T11:42:56.109Z,40.23
2023-02-27T11:46:13.701Z,42.03
2023-02-27T11:48:35.127Z,43.19
2023-02-27T11:51:10.377Z,42.52
2023-02-27T11:54:14.147Z,43.39
2023-02-27T11:57:03.176Z,42.30
2023-02-27T11:59:48.118Z,42.67
2023-02-27T12:02:38.955Z,39.84
2023-02-27T12:05:17.577Z,40.60
2023-02-27T12:07:58.126Z,40.29
2023-02-27T12:11:14.050Z,40.91
2023-02-27T12:13:45.337Z,38.51
2023-02-27T12:16:21.219Z,39.50
2023-02-27T12:19:05.131Z,39.60
2023-02-27T12:21:49.211Z,40.36
2023-02-27T12:24:51.113Z,40.81
2023-02-27T12:27:36.108Z,41.04
2023-02-27T12:30:13.168Z,40.38
2023-02-27T12:33:18.112Z,41.01
2023-02-27T12:35:49.685Z,39.35
2023-02-27T12:38:16.726Z,38.07
2023-02-27T12:41:06.093Z,39.06
2023-02-27T12:43:48.439Z,39.07
2023-02-27T12:46:31.141Z,38.77
2023-02-27T12:49:15.008Z,39.50
2023-02-27T12:52:06.175Z,40.62
2023-02-27T12:55:01.420Z,39.01
2023-02-27T12:57:49.078Z,39.92
2023-02-27T13:00:19.689Z,39.48
2023-02-27T13:03:08.075Z,40.19
2023-02-27T13:05:51.883Z,39.65
2023-02-27T13:09:01.078Z,40.90
2023-02-27T13:11:52.891Z,40.54
2023-02-27T13:14:46.091Z,40.07
2023-02-27T13:17:39.350Z,40.40
2023-02-27T13:20:27.094Z,40.38
2023-02-27T13:23:32.780Z,42.56
2023-02-27T13:26:08.074Z,41.62
2023-02-27T13:28:34.719Z,40.98
2023-02-27T13:31:16.083Z,41.33
2023-02-27T13:33:45.191Z,40.21
2023-02-27T13:36:43.059Z,40.50
2023-02-27T13:39:40.511Z,40.16
2023-02-27T13:42:32.055Z,41.05
2023-02-27T13:45:04.581Z,40.79
2023-02-27T13:47:37.058Z,41.04
2023-02-27T13:50:25.001Z,41.86
2023-02-27T13:52:59.062Z,42.30
2023-02-27T13:55:28.428Z,43.17
2023-02-27T13:58:06.067Z,43.04
2023-02-27T14:00:37.719Z,43.11
2023-02-27T14:03:32.097Z,43.38
2023-02-27T14:06:03.192Z,42.62
2023-02-27T14:09:05.003Z,42.11
2023-02-27T14:11:48.058Z,41.80
2023-02-27T14:14:43.042Z,43.33
2023-02-27T14:17:12.040Z,42.90
2023-02-27T14:19:48.045Z,42.38
2023-02-27T14:22:21.026Z,43.49
2023-02-27T14:25:04.099Z,43.72
2023-02-27T14:27:52.131Z,43.82
2023-02-27T14:30:50.184Z,43.12
2023-02-27T14:33:39.736Z,43.61
2023-02-27T14:36:22.067Z,43.86
2023-02-27T14:38:49.907Z,43.83
2023-02-27T14:41:49.020Z,44.60
2023-02-27T14:44:24.399Z,44.91
2023-02-27T14:47:00.021Z,45.90
2023-02-27T14:49:36.038Z,44.46
2023-02-27T14:52:13.037Z,44.83
2023-02-27T14:54:46.029Z,43.79
2023-02-27T14:57:19.712Z,43.90
2023-02-27T14:59:55.031Z,44.77
2023-02-27T15:02:30.610Z,45.01
2023-02-27T15:05:10.030Z,45.50
2023-02-27T15:07:36.554Z,45.11
2023-02-27T15:10:13.036Z,45.35
2023-02-27T15:12:46.023Z,45.84
2023-02-27T15:15:28.040Z,45.15
2023-02-27T15:17:55.778Z,45.23
2023-02-27T15:20:37.054Z,46.05
2023-02-27T15:23:32.035Z,46.00
2023-02-27T15:26:00.247Z,45.59
2023-02-27T15:28:38.037Z,46.35
2023-02-27T15:31:12.088Z,46.58
2023-02-27T15:33:38.568Z,46.92
2023-02-27T15:36:12.023Z,46.18
2023-02-27T15:38:45.024Z,46.47
2023-02-27T15:41:14.271Z,45.52
2023-02-27T15:43:41.454Z,46.59
2023-02-27T15:46:14.031Z,46.34
2023-02-27T15:48:47.030Z,46.84
2023-02-27T15:51:13.532Z,47.53
2023-02-27T15:53:56.023Z,47.31
2023-02-27T15:56:29.608Z,48.21
2023-02-27T15:59:04.021Z,47.67
2023-02-27T16:01:38.820Z,47.63
2023-02-27T16:04:14.045Z,48.00
2023-02-27T16:06:48.019Z,48.99
2023-02-27T16:09:31.999Z,48.79
2023-02-27T16:12:22.624Z,49.04
2023-02-27T16:14:58.994Z,48.95
2023-02-27T16:17:38.013Z,49.14
2023-02-27T16:20:30.837Z,49.63
2023-02-27T16:23:27.015Z,49.23
2023-02-27T16:26:33.049Z,50.08
2023-02-27T16:29:12.984Z,50.08
2023-02-27T16:31:45.414Z,50.39
2023-02-27T16:34:45.080Z,50.58
2023-02-27T16:37:29.015Z,50.53
2023-02-27T16:40:02.054Z,49.90
2023-02-27T16:42:37.067Z,50.20
2023-02-27T16:45:03.697Z,50.24
2023-02-27T16:47:32.815Z,50.52
2023-02-27T16:50:05.983Z,50.91
2023-02-27T16:52:38.993Z,50.57
2023-02-27T16:55:05.907Z,50.51
2023-02-27T16:57:38.963Z,50.46
2023-02-27T17:00:07.720Z,51.18
2023-02-27T17:02:40.993Z,51.03
2023-02-27T17:05:14.952Z,51.11
2023-02-27T17:07:49.012Z,50.93
2023-02-27T17:10:27.978Z,51.31
2023-02-27T17:12:54.837Z,50.88
2023-02-27T17:15:29.027Z,51.07
2023-02-27T17:17:55.538Z,51.48
2023-02-27T17:20:28.987Z,51.23
2023-02-27T17:22:57.730Z,51.51
2023-02-27T17:25:31.982Z,52.10
2023-02-27T17:27:58.418Z,51.98
2023-02-27T17:30:25.293Z,52.52
2023-02-27T17:33:00.214Z,53.01
2023-02-27T17:35:37.503Z,52.26
2023-02-27T17:38:09.969Z,52.67
2023-02-27T18:09:37.132Z,55.46
2023-02-27T18:12:03.649Z,56.08
2023-02-27T18:14:37.079Z,56.33
2023-02-27T18:17:19.132Z,56.96
2023-02-27T18:19:45.619Z,57.05
2023-02-27T18:22:15.061Z,58.10
2023-02-27T18:24:48.092Z,58.00
2023-02-27T18:27:21.124Z,57.49
2023-02-27T18:29:57.173Z,58.02
2023-02-27T18:32:32.101Z,58.22
2023-02-27T18:34:58.516Z,58.87
2023-02-27T18:37:24.920Z,58.69
2023-02-27T18:39:59.071Z,59.83
2023-02-27T18:42:25.589Z,59.69
2023-02-27T18:44:58.066Z,59.95
2023-02-27T18:47:24.780Z,59.89
2023-02-27T18:49:58.151Z,60.35
2023-02-27T18:52:24.871Z,60.52
2023-02-27T18:54:58.086Z,61.30
2023-02-27T18:57:31.345Z,61.42
2023-02-27T19:00:06.064Z,61.73
2023-02-27T19:02:32.486Z,61.35
2023-02-27T19:05:08.077Z,61.35
2023-02-27T19:07:41.082Z,61.57
2023-02-27T19:10:16.057Z,61.39
2023-02-27T19:12:42.608Z,61.11
2023-02-27T19:15:17.062Z,61.00
2023-02-27T19:17:43.474Z,61.95
2023-02-27T19:20:21.081Z,61.63
2023-02-27T19:22:47.538Z,61.81
2023-02-27T19:25:13.983Z,62.12
2023-02-27T19:27:47.207Z,62.01
2023-02-27T19:30:29.066Z,62.29
2023-02-27T19:33:02.059Z,62.89
2023-02-27T19:35:28.517Z,62.43
2023-02-27T19:38:04.075Z,63.10
2023-02-27T19:40:37.054Z,62.44
2023-02-27T19:43:03.520Z,63.13
2023-02-27T19:45:47.033Z,63.05
2023-02-27T19:48:15.221Z,63.08
2023-02-27T19:50:41.644Z,62.82
2023-02-27T19:53:15.050Z,63.48
2023-02-27T19:55:41.461Z,63.09
2023-02-27T19:58:15.019Z,62.99
2023-02-27T20:00:48.048Z,63.26
2023-02-27T20:03:14.477Z,62.75
2023-02-27T20:05:47.038Z,62.52
2023-02-27T20:08:13.434Z,63.16
2023-02-27T20:10:39.845Z,62.91
2023-02-27T20:13:20.029Z,63.05
2023-02-27T20:15:55.317Z,63.22
2023-02-27T20:18:28.014Z,62.98
2023-02-27T20:21:16.049Z,63.11
2023-02-27T20:23:43.862Z,63.49
2023-02-27T20:26:30.296Z,63.70
2023-02-27T20:29:00.488Z,64.05
2023-02-27T20:31:36.070Z,64.27
2023-02-27T20:34:13.058Z,64.41
2023-02-27T20:36:46.017Z,64.51
2023-02-27T20:39:12.440Z,64.83
2023-02-27T20:41:40.190Z,64.54
2023-02-27T20:44:14.981Z,65.35
2023-02-27T20:46:51.004Z,65.16
2023-02-27T20:49:24.006Z,66.32
2023-02-27T20:51:50.441Z,65.54
2023-02-27T20:54:26.990Z,65.76
2023-02-27T20:57:00.993Z,65.65
2023-02-27T20:59:27.468Z,65.95
2023-02-27T21:02:01.224Z,66.81
2023-02-27T21:04:43.158Z,66.63
2023-02-27T21:07:20.990Z,66.87
2023-02-27T21:09:53.969Z,66.56
2023-02-27T21:12:27.072Z,67.32
2023-02-27T21:14:54.034Z,67.59
2023-02-27T21:17:27.003Z,68.51
2023-02-27T21:19:59.990Z,68.32
2023-02-27T21:22:32.964Z,68.11
2023-02-27T21:25:05.985Z,68.55
2023-02-27T21:27:40.011Z,68.91
2023-02-27T21:30:07.160Z,68.82
2023-02-27T21:32:39.979Z,69.10
2023-02-27T21:35:06.723Z,68.85
2023-02-27T21:37:39.982Z,68.81
2023-02-27T21:40:07.274Z,68.90
2023-02-27T21:42:39.970Z,69.28
2023-02-27T21:45:06.853Z,69.17
2023-02-27T21:47:39.960Z,69.53
2023-02-27T21:50:13.951Z,69.68
2023-02-27T21:52:51.041Z,69.77
2023-02-27T21:55:24.064Z,70.14
2023-02-27T21:57:56.969Z,70.37
2023-02-27T22:00:26.457Z,70.36
2023-02-27T22:03:00.050Z,70.23
2023-02-27T22:05:33.956Z,70.30
2023-02-27T22:08:00.367Z,70.57
2023-02-27T22:10:32.966Z,71.08
2023-02-27T22:12:59.420Z,71.23
2023-02-27T22:15:31.967Z,71.21
2023-02-27T22:18:06.481Z,71.35
2023-02-27T22:20:33.344Z,71.23
2023-02-27T22:23:07.958Z,71.28
2023-02-27T22:25:35.878Z,71.59
2023-02-27T22:28:02.969Z,71.85
2023-02-27T22:30:36.949Z,71.27
2023-02-27T22:33:03.463Z,71.54
2023-02-27T22:35:38.951Z,71.56
2023-02-27T22:38:05.352Z,71.64
2023-02-27T22:40:39.917Z,71.77
2023-02-27T22:43:06.327Z,71.18
2023-02-27T22:45:38.933Z,71.63
2023-02-27T22:48:05.688Z,71.17
2023-02-27T22:50:38.944Z,71.64
2023-02-27T22:53:05.388Z,71.50
2023-02-27T22:55:31.810Z,71.29
2023-02-27T22:58:04.923Z,71.51
2023-02-27T23:00:31.381Z,71.65
2023-02-27T23:03:04.205Z,72.26
2023-02-27T23:05:36.915Z,71.83
2023-02-27T23:08:03.337Z,72.10
2023-02-27T23:10:35.984Z,71.99
2023-02-27T23:13:02.665Z,71.98
2023-02-27T23:15:35.944Z,71.93
2023-02-27T23:18:02.401Z,71.99
2023-02-27T23:20:34.927Z,71.91
2023-02-27T23:23:07.910Z,72.14
2023-02-27T23:25:35.885Z,71.64
2023-02-27T23:28:10.935Z,72.15
2023-02-27T23:30:44.133Z,71.96
2023-02-27T23:33:16.897Z,72.05
2023-02-27T23:35:49.923Z,71.89
2023-02-27T23:38:16.372Z,71.87
2023-02-27T23:40:49.920Z,72.37
2023-02-27T23:43:22.902Z,72.14
2023-02-27T23:45:56.006Z,72.18
2023-02-27T23:48:28.895Z,72.21
2023-02-27T23:51:04.904Z,72.58
2023-02-27T23:53:32.515Z,72.63
2023-02-27T23:56:05.903Z,72.75
2023-02-27T23:58:38.904Z,72.58
